LIML/LIN METAR and TAF weather

Enter ICAO airport designator
Station Type Date Time Source
LIML METAR 2019/05/26 22:50 UTC NOAA

LIML 262250Z 11004KT CAVOK 18/15 Q1013 NOSIG


Station Type Date Time Source
LIML Decoded METAR 2019/05/26 22:50 UTC NOAA

Milano / Linate, Italy (LIML) 45-26N 009-17E 103M
May 26, 2019 - 06:50 PM EDT / 2019.05.26 2250 UTC
Wind: from the ESE (110 degrees) at 5 MPH (4 KT):0
Visibility: greater than 7 mile(s):0
Temperature: 64 F (18 C)
Dew Point: 59 F (15 C)
Relative Humidity: 82%
Pressure (altimeter): 29.91 in. Hg (1013 hPa)
ob: LIML 262250Z 11004KT CAVOK 18/15 Q1013 NOSIG
cycle: 23

Station Type Date Time Source
LIML TAF 2019/05/26 18:21 UTC NOAA

TAF LIML 261700Z 2618/2718 VRB05KT 9999 SCT030 BKN070
TEMPO 2618/2621 SHRA
BECMG 2705/2707 RA

Example: see airport list